EST,Max TemperatureF,Mean TemperatureF,Min TemperatureF,Max Dew PointF,MeanDew PointF,Min DewpointF,Max Humidity, Mean Humidity, Min Humidity, Max Sea Level PressureIn, Mean Sea Level PressureIn, Min Sea Level PressureIn, Max VisibilityMiles, Mean VisibilityMiles, Min VisibilityMiles, Max Wind SpeedMPH, Mean Wind SpeedMPH, Max Gust SpeedMPH,PrecipitationIn, CloudCover, Events, WindDirDegrees
2012-12-1,66,47,28,41,36,28,100,77,35,30.42,30.36,30.32,10,10,7,7,0,,0.00,0,,136
2012-12-2,69,50,32,52,42,32,100,80,46,30.39,30.31,30.22,10,9,5,9,1,23,0.00,2,,213
2012-12-3,77,62,46,54,51,46,100,76,39,30.31,30.27,30.23,10,10,7,6,1,,0.00,3,,205
2012-12-4,73,56,39,54,46,39,100,71,36,30.32,30.24,30.17,10,9,3,8,1,,0.00,0,,209
2012-12-5,64,50,35,54,38,23,100,59,22,30.24,30.18,30.12,10,10,10,12,3,20,0.00,4,Rain,325
2012-12-6,48,44,39,36,30,27,71,57,43,30.37,30.28,30.23,10,10,10,6,1,,0.00,7,,76
2012-12-7,51,46,42,50,41,34,100,80,62,30.23,30.12,30.02,10,8,2,4,0,,0.07,8,Rain,140
2012-12-8,66,55,44,54,50,45,100,91,60,30.06,30.01,29.96,10,6,1,7,2,,0.00,4,,204
2012-12-9,62,52,42,63,55,43,100,99,88,30.14,30.07,29.99,10,3,0,4,0,,0.00,7,Fog-Rain,176
2012-12-10,64,58,51,63,59,52,100,93,73,29.99,29.79,29.67,10,7,0,10,2,16,0.01,7,Fog-Rain,206
2012-12-11,62,50,39,57,33,27,82,58,41,30.19,29.99,29.71,10,10,10,13,7,18,0.01,4,Rain,339
2012-12-12,48,44,39,28,27,27,61,53,43,30.36,30.31,30.20,10,10,10,9,4,16,0.00,4,,17
2012-12-13,53,38,24,27,22,14,86,51,22,30.45,30.38,30.34,10,10,10,9,4,16,0.00,3,,14
2012-12-14,60,40,19,28,23,18,100,66,20,30.37,30.31,30.24,10,10,10,5,0,,0.00,0,,154
2012-12-15,60,44,28,34,29,23,100,61,23,30.27,30.19,30.08,10,10,10,9,1,,0.00,1,,154
2012-12-16,51,46,42,52,46,28,100,94,41,30.08,29.99,29.89,10,7,3,12,1,17,0.27,6,Rain,212
2012-12-17,57,52,46,57,53,46,100,100,100,29.91,29.78,29.65,10,7,0,8,1,,0.00,5,Fog-Rain,208
2012-12-18,59,46,33,55,39,28,100,74,38,29.92,29.77,29.65,10,8,0,18,3,24,0.00,3,Fog,276
2012-12-19,66,48,30,36,31,25,100,58,22,30.15,30.01,29.88,10,10,10,8,2,18,0.00,0,,261
2012-12-20,46,39,32,45,37,32,100,88,66,30.19,29.93,29.50,10,9,3,7,1,,0.00,4,Rain,24
2012-12-21,46,40,35,46,23,18,100,52,39,29.82,29.66,29.50,10,10,10,16,8,26,0.00,8,,271
2012-12-22,51,38,26,19,16,7,74,42,16,30.11,30.00,29.82,10,10,10,28,12,39,0.01,2,,305
2012-12-23,50,34,19,30,20,12,100,59,22,30.12,30.06,30.00,10,10,10,8,1,,0.00,1,,216
2012-12-24,44,40,37,45,40,28,100,94,65,30.02,29.95,29.89,10,6,2,7,1,,0.80,7,Rain,202
2012-12-25,57,46,35,50,41,36,100,90,51,30.12,30.05,29.93,10,6,0,9,1,,0.01,5,Fog,71
2012-12-26,44,40,37,43,39,37,100,99,81,30.09,29.75,29.53,10,8,2,14,6,23,1.48,7,Rain,16
2012-12-27,46,37,28,37,27,23,100,66,46,30.12,29.91,29.62,10,10,10,21,7,29,0.00,3,,315
2012-12-28,42,33,24,36,27,21,100,78,53,30.18,30.09,29.99,10,10,10,8,1,,0.00,2,,260
2012-12-29,51,42,33,41,32,21,100,74,46,29.99,29.82,29.68,10,8,2,23,4,29,0.09,6,Rain-Snow,288
2012-12-30,46,36,26,21,17,12,74,47,25,30.38,30.26,30.01,10,10,10,24,11,30,0.00,2,,319
2012-12-31,46,34,23,27,22,18,100,59,34,30.36,30.24,30.10,10,10,10,6,1,,0.00,1,,216